Terminal Aerodrome Forecast
Issued by NWS

Home | Current Version | Previous Version | Text Only | Print | Product List | Glossary On
Versions: 1 2 3 4 5 6 7 8 9 10 11 12 13 14 15 16 17 18 19 20 21 22 23 24 25 26
000
FTUS44 KFWD 210800 AAA
TAFAFW
TAF AMD
KAFW 210855Z 2109/2206 16010KT P6SM OVC012
     FM211100 18010KT 5SM BR VCSH OVC007
     FM211700 18012KT P6SM BKN025=

USA.gov is the U.S. government's official web portal to all federal, state and local government web resources and services.